Time;durP1;ratioP1;P1;durP2;ratioP2;P2;SDS_P1;SDS_P2;PMS_P1;PMS_P2;Temp;Humidity;BMP_temperature;BMP_pressure;BME280_temperature;BME280_humidity;BME280_pressure;Samples;Min_cycle;Max_cycle;Signal;HPM_P1;HPM_P2
2021/05/19 00:00:41;;;;;;;1.67;1.45;;;;;;;8.60;100.00;98455.13;5057956;28;45326;-87
2021/05/19 00:03:06;;;;;;;7.65;1.27;;;;;;;8.57;100.00;98457.22;5057893;28;45575;-87
2021/05/19 00:05:32;;;;;;;1.60;0.80;;;;;;;8.42;100.00;98464.69;5057502;28;46131;-87
2021/05/19 00:07:57;;;;;;;2.45;1.10;;;;;;;8.52;100.00;98462.09;5057434;28;45270;-87
2021/05/19 00:10:23;;;;;;;2.30;1.17;;;;;;;8.59;100.00;98468.53;5057630;28;45444;-88
2021/05/19 00:12:48;;;;;;;3.33;1.10;;;;;;;8.55;100.00;98467.13;5057475;28;45210;-86
2021/05/19 00:15:14;;;;;;;2.28;1.25;;;;;;;8.72;100.00;98461.13;5057345;28;45371;-88
2021/05/19 00:17:41;;;;;;;2.80;1.08;;;;;;;8.66;100.00;98468.78;5057476;28;45280;-87
2021/05/19 00:20:07;;;;;;;4.88;1.52;;;;;;;8.63;100.00;98469.91;5057607;28;45429;-88
2021/05/19 00:22:33;;;;;;;3.88;1.40;;;;;;;8.70;100.00;98465.75;5057430;28;45329;-86
2021/05/19 00:24:58;;;;;;;2.28;1.23;;;;;;;8.70;100.00;98459.59;5057207;28;45412;-87
2021/05/19 00:27:23;;;;;;;3.60;1.30;;;;;;;8.64;100.00;98462.78;5057403;28;45335;-87
2021/05/19 00:29:50;;;;;;;2.40;1.30;;;;;;;8.63;100.00;98464.63;5057312;28;45530;-86
2021/05/19 00:32:16;;;;;;;3.65;1.90;;;;;;;8.51;100.00;98463.91;5062604;28;45311;-86
2021/05/19 00:34:41;;;;;;;4.07;1.83;;;;;;;8.48;100.00;98466.78;5054297;28;46171;-87
2021/05/19 00:37:07;;;;;;;2.13;1.17;;;;;;;8.60;100.00;98468.38;5057344;28;45420;-86
2021/05/19 00:39:32;;;;;;;3.70;1.45;;;;;;;8.54;100.00;98465.44;5055380;28;45310;-86
2021/05/19 00:41:57;;;;;;;2.00;1.05;;;;;;;8.51;100.00;98466.56;5057335;28;45288;-86
2021/05/19 00:44:23;;;;;;;5.28;1.63;;;;;;;8.59;100.00;98452.63;5057083;28;46248;-86
2021/05/19 00:46:48;;;;;;;4.07;1.42;;;;;;;8.79;100.00;98452.63;5057507;28;45284;-87
2021/05/19 00:49:15;;;;;;;3.30;1.90;;;;;;;8.90;100.00;98452.47;5057258;28;45463;-87
2021/05/19 00:51:41;;;;;;;4.00;1.98;;;;;;;8.80;100.00;98452.47;5055897;28;45394;-87
2021/05/19 00:54:07;;;;;;;2.95;1.38;;;;;;;8.74;100.00;98445.06;5056426;28;46307;-86
2021/05/19 00:56:33;;;;;;;2.85;1.27;;;;;;;8.80;100.00;98451.66;5056821;28;45653;-86
2021/05/19 00:59:01;;;;;;;6.75;1.42;;;;;;;8.84;100.00;98458.34;5057088;28;45555;-86
2021/05/19 01:01:34;;;;;;;2.42;1.10;;;;;;;8.70;100.00;98455.13;5057268;28;45248;-85
2021/05/19 01:04:00;;;;;;;2.53;1.10;;;;;;;8.64;100.00;98454.84;5056919;28;46422;-86
2021/05/19 01:06:43;;;;;;;3.33;1.35;;;;;;;8.55;100.00;98446.75;5056964;28;45324;-86
2021/05/19 01:11:54;;;;;;;2.15;1.10;;;;;;;8.64;100.00;98450.38;5058684;28;45344;-86
2021/05/19 01:14:19;;;;;;;5.50;1.40;;;;;;;8.54;100.00;98457.50;5060168;28;45331;-86
2021/05/19 01:16:45;;;;;;;2.83;1.00;;;;;;;8.44;100.00;98453.00;5060191;28;45412;-86
2021/05/19 01:19:14;;;;;;;2.88;1.10;;;;;;;8.43;100.00;98450.47;5060677;28;45316;-86
2021/05/19 01:21:42;;;;;;;3.20;1.30;;;;;;;8.58;100.00;98451.78;5060260;28;45217;-86
2021/05/19 01:24:08;;;;;;;2.67;1.30;;;;;;;8.44;100.00;98452.16;5060016;28;45382;-86
2021/05/19 01:26:33;;;;;;;1.92;1.08;;;;;;;8.57;100.00;98436.84;5060001;28;45273;-85
2021/05/19 01:29:01;;;;;;;2.85;1.50;;;;;;;8.53;100.00;98437.28;5060359;28;45330;-85
2021/05/19 01:31:27;;;;;;;2.35;1.20;;;;;;;8.59;100.00;98428.75;5062597;28;45642;-86
2021/05/19 01:33:52;;;;;;;3.78;1.20;;;;;;;8.45;100.00;98432.63;5059764;27;46170;-85
2021/05/19 01:36:17;;;;;;;3.60;1.27;;;;;;;8.54;100.00;98425.69;5059920;28;45343;-85
2021/05/19 01:38:46;;;;;;;4.68;1.20;;;;;;;8.51;100.00;98428.63;5059965;28;45229;-85
2021/05/19 01:41:12;;;;;;;2.33;1.10;;;;;;;8.43;100.00;98416.88;5059220;28;45259;-85
2021/05/19 01:43:38;;;;;;;3.25;1.23;;;;;;;8.44;100.00;98423.00;5059941;28;46162;-85
2021/05/19 01:46:06;;;;;;;2.08;1.17;;;;;;;8.44;100.00;98420.34;5059664;28;45340;-85
2021/05/19 01:48:33;;;;;;;3.58;1.27;;;;;;;8.51;100.00;98429.44;5060121;28;45328;-86
2021/05/19 01:50:59;;;;;;;2.58;1.15;;;;;;;8.40;100.00;98427.75;5053151;28;46537;-86
2021/05/19 01:53:28;;;;;;;4.18;1.00;;;;;;;8.25;100.00;98414.03;5050212;28;46035;-86
2021/05/19 01:55:54;;;;;;;2.72;1.30;;;;;;;8.27;100.00;98413.91;5059600;28;45323;-87
2021/05/19 01:58:19;;;;;;;4.97;1.27;;;;;;;8.22;100.00;98424.06;5060036;28;45295;-86
2021/05/19 02:00:46;;;;;;;4.43;1.40;;;;;;;8.31;100.00;98415.28;5059584;28;45298;-86
2021/05/19 02:03:12;;;;;;;4.78;1.75;;;;;;;8.20;100.00;98413.63;5059707;28;45330;-85
2021/05/19 02:05:38;;;;;;;5.28;2.47;;;;;;;8.18;100.00;98419.03;5059393;28;45457;-85
2021/05/19 02:08:06;;;;;;;3.95;2.08;;;;;;;8.08;100.00;98417.38;5059617;28;45273;-85
2021/05/19 02:10:32;;;;;;;4.57;2.15;;;;;;;8.25;100.00;98413.19;5059294;28;45556;-84
2021/05/19 02:13:07;;;;;;;3.63;1.77;;;;;;;8.21;100.00;98415.28;5059467;28;45956;-85
2021/05/19 02:15:33;;;;;;;3.22;1.60;;;;;;;8.13;100.00;98417.78;5046359;28;45237;-85
2021/05/19 02:17:59;;;;;;;5.80;1.70;;;;;;;8.28;100.00;98418.22;5059469;28;45424;-84
2021/05/19 02:20:25;;;;;;;2.50;1.33;;;;;;;8.22;100.00;98427.56;5058649;28;45384;-85
2021/05/19 02:22:51;;;;;;;6.85;1.98;;;;;;;8.32;100.00;98427.56;5057621;28;48107;-83
2021/05/19 02:25:18;;;;;;;3.20;1.70;;;;;;;8.23;100.00;98431.91;5059429;28;45408;-85
2021/05/19 02:27:48;;;;;;;2.95;1.50;;;;;;;8.39;100.00;98434.00;5059393;28;45288;-85
2021/05/19 02:30:15;;;;;;;3.58;1.45;;;;;;;8.35;100.00;98445.03;5059285;28;45550;-85
2021/05/19 02:32:41;;;;;;;4.22;1.73;;;;;;;8.18;100.00;98436.75;5061336;28;45490;-85
2021/05/19 02:35:08;;;;;;;3.55;1.52;;;;;;;8.13;100.00;98442.47;5058165;28;45397;-85
2021/05/19 02:37:34;;;;;;;4.25;1.95;;;;;;;8.27;100.00;98448.34;5059015;28;45226;-84
2021/05/19 02:40:01;;;;;;;5.13;2.28;;;;;;;8.47;100.00;98441.25;5061507;28;45503;-86
2021/05/19 02:42:26;;;;;;;2.65;1.80;;;;;;;8.54;100.00;98444.25;5058111;28;48007;-86
2021/05/19 02:44:52;;;;;;;4.78;1.88;;;;;;;8.37;100.00;98443.88;5055123;28;45258;-85
2021/05/19 02:47:17;;;;;;;5.07;1.75;;;;;;;8.46;100.00;98453.69;5057754;28;45332;-86
2021/05/19 02:49:43;;;;;;;4.95;2.20;;;;;;;8.36;100.00;98452.81;5058686;28;45590;-86
2021/05/19 02:52:09;;;;;;;4.03;2.00;;;;;;;8.37;100.00;98451.84;5058677;28;46060;-84
2021/05/19 02:54:35;;;;;;;3.63;1.73;;;;;;;8.33;100.00;98458.38;5056800;28;45410;-85
2021/05/19 02:57:00;;;;;;;5.95;1.80;;;;;;;8.28;100.00;98463.25;5059042;28;45439;-84
2021/05/19 02:59:26;;;;;;;2.97;1.63;;;;;;;8.32;100.00;98473.47;5058533;28;45653;-84
2021/05/19 03:01:52;;;;;;;6.90;2.47;;;;;;;8.44;100.00;98471.53;5057258;28;45398;-84
2021/05/19 03:04:18;;;;;;;5.93;2.35;;;;;;;8.29;100.00;98467.59;5058272;28;45285;-85
2021/05/19 03:06:43;;;;;;;4.80;2.10;;;;;;;8.29;100.00;98457.00;5058783;28;45221;-85
2021/05/19 03:09:09;;;;;;;5.35;2.70;;;;;;;8.28;100.00;98458.81;5058069;28;45217;-85
2021/05/19 03:11:35;;;;;;;6.07;2.90;;;;;;;8.28;100.00;98455.31;5058538;28;46101;-85
2021/05/19 03:14:02;;;;;;;5.53;2.92;;;;;;;8.34;100.00;98454.75;5058257;28;45281;-85
2021/05/19 03:16:27;;;;;;;4.70;2.85;;;;;;;8.11;100.00;98464.78;5058746;28;45608;-85
2021/05/19 03:18:54;;;;;;;4.53;3.15;;;;;;;8.22;100.00;98447.91;5058331;28;45489;-85
2021/05/19 03:21:20;;;;;;;4.93;3.05;;;;;;;8.23;100.00;98458.38;5058462;28;46068;-85
2021/05/19 03:23:45;;;;;;;6.95;3.60;;;;;;;8.15;100.00;98455.59;5057958;28;45362;-85
2021/05/19 03:26:11;;;;;;;10.73;3.72;;;;;;;8.02;100.00;98466.41;5058643;28;45463;-85
2021/05/19 03:28:36;;;;;;;4.80;3.28;;;;;;;8.10;100.00;98469.22;5058255;28;45294;-84
2021/05/19 03:31:04;;;;;;;5.50;3.20;;;;;;;8.13;100.00;98470.78;5057891;28;46244;-84
2021/05/19 03:33:30;;;;;;;6.40;3.45;;;;;;;8.10;100.00;98469.22;5053445;28;45375;-85
2021/05/19 03:35:55;;;;;;;6.10;3.58;;;;;;;8.20;100.00;98474.56;5058431;28;45278;-84
2021/05/19 03:38:21;;;;;;;6.47;3.90;;;;;;;8.12;100.00;98477.88;5058011;28;45249;-86
2021/05/19 03:40:46;;;;;;;6.57;4.40;;;;;;;8.17;100.00;98480.94;5058152;28;46038;-86
2021/05/19 03:43:12;;;;;;;6.88;4.68;;;;;;;8.14;100.00;98483.88;5058103;28;45515;-85
2021/05/19 03:45:38;;;;;;;8.55;4.60;;;;;;;8.17;100.00;98474.81;5058143;28;45241;-85
2021/05/19 03:48:04;;;;;;;8.75;4.80;;;;;;;8.29;100.00;98472.88;5058182;28;45596;-85
2021/05/19 03:50:30;;;;;;;7.40;4.18;;;;;;;8.32;100.00;98473.47;5057667;28;45682;-85
2021/05/19 03:53:00;;;;;;;7.53;4.25;;;;;;;8.52;100.00;98480.66;5057770;28;45370;-84
2021/05/19 03:55:26;;;;;;;6.63;3.88;;;;;;;8.38;100.00;98468.59;5057984;28;45213;-84
2021/05/19 03:57:51;;;;;;;6.00;3.47;;;;;;;8.49;100.00;98479.09;5053332;28;45530;-85
2021/05/19 04:00:20;;;;;;;8.30;3.35;;;;;;;8.35;100.00;98482.13;5052776;28;45462;-85
2021/05/19 04:02:49;;;;;;;6.70;3.20;;;;;;;8.29;100.00;98479.03;5057903;28;45362;-85
2021/05/19 04:05:19;;;;;;;8.02;3.47;;;;;;;8.23;100.00;98499.94;5057987;28;45292;-85
2021/05/19 04:07:48;;;;;;;5.03;3.38;;;;;;;8.31;100.00;98478.88;5057552;28;45618;-86
2021/05/19 04:10:13;;;;;;;6.90;3.25;;;;;;;8.31;100.00;98482.38;5057253;28;45212;-86
2021/05/19 04:12:39;;;;;;;5.60;3.22;;;;;;;8.27;100.00;98486.28;5057814;28;45232;-86
2021/05/19 04:15:05;;;;;;;6.18;3.78;;;;;;;8.45;100.00;98481.19;5057689;28;45247;-85
2021/05/19 04:17:30;;;;;;;7.10;3.78;;;;;;;8.43;100.00;98483.13;5056455;28;45619;-84
2021/05/19 04:19:56;;;;;;;5.68;3.80;;;;;;;8.54;100.00;98486.66;5057301;28;45414;-85
2021/05/19 04:22:21;;;;;;;4.93;3.67;;;;;;;8.53;100.00;98491.09;5057368;28;45214;-85
2021/05/19 04:24:47;;;;;;;8.40;3.72;;;;;;;8.64;100.00;98490.16;5057432;28;45277;-84
2021/05/19 04:27:12;;;;;;;6.80;3.15;;;;;;;8.44;100.00;98484.81;5057650;28;45515;-84
2021/05/19 04:29:37;;;;;;;8.73;3.90;;;;;;;8.46;100.00;98487.31;5057236;28;45490;-84
2021/05/19 04:32:03;;;;;;;5.57;4.05;;;;;;;8.50;100.00;98493.22;5064357;28;45446;-84
2021/05/19 04:34:29;;;;;;;6.78;4.00;;;;;;;8.31;100.00;98500.94;5053029;28;45435;-85
2021/05/19 04:36:54;;;;;;;9.45;4.80;;;;;;;8.41;100.00;98497.47;5057561;28;45344;-84
2021/05/19 04:39:20;;;;;;;8.30;4.80;;;;;;;8.52;100.00;98499.22;5056891;28;45356;-85
2021/05/19 04:41:45;;;;;;;10.95;4.78;;;;;;;8.67;100.00;98505.78;5057229;28;45274;-84
2021/05/19 04:44:11;;;;;;;6.50;4.70;;;;;;;8.49;100.00;98504.75;5059085;28;45481;-83
2021/05/19 04:46:39;;;;;;;10.98;5.38;;;;;;;8.58;100.00;98501.31;5061039;28;45583;-84
2021/05/19 04:49:05;;;;;;;9.35;5.55;;;;;;;8.50;100.00;98509.94;5060635;28;46157;-85
2021/05/19 04:51:30;;;;;;;8.43;5.20;;;;;;;8.53;100.00;98514.13;5060802;28;45301;-85
2021/05/19 04:53:56;;;;;;;9.68;6.43;;;;;;;8.66;100.00;98514.72;5060598;28;45406;-86
2021/05/19 04:56:22;;;;;;;8.88;6.03;;;;;;;8.61;100.00;98519.59;5060782;28;45582;-86
2021/05/19 04:58:47;;;;;;;9.75;5.45;;;;;;;8.54;100.00;98518.47;5058755;28;47069;-86
2021/05/19 05:25:13;;;;;;;11.10;6.40;;;;;;;8.68;100.00;98546.38;5110324;27;45434;-85
2021/05/19 05:27:38;;;;;;;8.65;6.38;;;;;;;8.87;100.00;98550.88;5097218;27;45617;-83
2021/05/19 05:30:05;;;;;;;11.18;6.55;;;;;;;8.97;100.00;98559.69;5093937;27;45405;-85
2021/05/19 05:32:30;;;;;;;9.25;6.63;;;;;;;8.95;100.00;98559.00;5093499;27;45416;-86
2021/05/19 05:34:56;;;;;;;11.43;6.63;;;;;;;8.87;100.00;98561.50;5092989;27;47126;-86
2021/05/19 05:37:22;;;;;;;9.55;6.35;;;;;;;8.70;100.00;98571.81;5094106;27;45497;-84
2021/05/19 05:39:49;;;;;;;9.15;6.32;;;;;;;8.87;100.00;98564.16;5110565;27;45419;-86
2021/05/19 05:42:14;;;;;;;9.20;6.63;;;;;;;9.20;100.00;98562.06;5106867;27;45529;-86
2021/05/19 05:44:40;;;;;;;12.18;6.20;;;;;;;9.11;100.00;98563.75;5104961;27;46569;-86
2021/05/19 05:47:05;;;;;;;9.13;6.40;;;;;;;9.15;100.00;98564.31;5103620;27;45413;-86
2021/05/19 05:49:31;;;;;;;8.88;6.47;;;;;;;8.99;100.00;98557.72;5099561;27;45367;-85
2021/05/19 05:51:56;;;;;;;11.57;6.28;;;;;;;9.11;100.00;98562.91;5104531;27;45451;-86
2021/05/19 05:54:22;;;;;;;8.57;6.55;;;;;;;8.82;100.00;98558.41;5089017;27;45211;-84
2021/05/19 05:56:47;;;;;;;8.55;6.68;;;;;;;8.81;100.00;98565.53;5137682;27;45799;-84
2021/05/19 05:59:12;;;;;;;10.98;6.72;;;;;;;8.82;100.00;98563.72;5101175;27;45438;-85
2021/05/19 06:01:38;;;;;;;13.50;6.05;;;;;;;8.78;100.00;98564.97;5093831;27;45468;-85
2021/05/19 06:04:03;;;;;;;9.60;6.47;;;;;;;8.81;100.00;98562.03;5098713;27;47827;-85
2021/05/19 06:06:29;;;;;;;9.35;5.55;;;;;;;8.84;100.00;98567.94;5104500;27;45440;-85
2021/05/19 06:08:54;;;;;;;9.70;5.70;;;;;;;8.75;100.00;98569.56;5099475;27;45372;-84
2021/05/19 06:11:20;;;;;;;9.88;5.90;;;;;;;8.75;100.00;98576.69;5101484;27;45400;-85
2021/05/19 06:13:45;;;;;;;9.27;6.25;;;;;;;8.94;100.00;98565.28;5081777;27;45302;-85
2021/05/19 06:16:11;;;;;;;8.52;5.03;;;;;;;8.97;100.00;98566.81;5091458;27;45437;-85
2021/05/19 06:18:37;;;;;;;8.13;4.90;;;;;;;8.76;100.00;98558.00;5093881;27;45332;-85
2021/05/19 06:21:02;;;;;;;10.20;5.32;;;;;;;9.08;100.00;98568.50;5091821;27;45472;-84
2021/05/19 06:23:28;;;;;;;8.00;4.88;;;;;;;8.88;100.00;98574.63;5090662;27;47723;-84
2021/05/19 06:25:53;;;;;;;10.38;5.03;;;;;;;8.97;100.00;98574.78;5079535;27;45622;-85
2021/05/19 06:28:19;;;;;;;10.25;5.03;;;;;;;8.94;100.00;98581.19;5076580;28;45509;-85
2021/05/19 06:30:44;;;;;;;9.02;4.97;;;;;;;9.08;100.00;98576.44;5078365;27;45283;-84
2021/05/19 06:33:09;;;;;;;10.27;5.07;;;;;;;9.12;100.00;98581.34;5076617;28;45849;-86
2021/05/19 06:35:35;;;;;;;7.95;5.30;;;;;;;8.85;100.00;98584.66;5073635;27;45503;-84
2021/05/19 06:38:00;;;;;;;10.55;5.55;;;;;;;8.95;100.00;98584.69;5075073;28;45496;-79
2021/05/19 06:40:26;;;;;;;9.65;5.15;;;;;;;9.10;100.00;98578.00;5076167;28;45632;-80
2021/05/19 06:42:51;;;;;;;7.40;5.43;;;;;;;9.01;100.00;98584.13;5076954;28;48209;-80
2021/05/19 06:45:17;;;;;;;7.97;4.97;;;;;;;9.09;100.00;98588.75;5078267;27;45487;-80
2021/05/19 06:47:42;;;;;;;7.20;5.18;;;;;;;9.13;100.00;98579.53;5079288;27;45302;-80
2021/05/19 06:50:08;;;;;;;8.52;5.40;;;;;;;9.34;100.00;98579.41;5077766;28;45249;-79
2021/05/19 06:52:34;;;;;;;8.15;5.65;;;;;;;9.31;100.00;98583.19;5078343;27;47359;-80
2021/05/19 06:55:05;;;;;;;7.03;5.00;;;;;;;9.34;100.00;98595.31;5077596;27;45487;-80
2021/05/19 06:57:32;;;;;;;6.55;4.47;;;;;;;9.20;100.00;98596.56;5077534;28;45422;-81
2021/05/19 06:59:57;;;;;;;5.18;4.20;;;;;;;9.01;100.00;98592.91;5076095;28;45536;-81
2021/05/19 07:02:22;;;;;;;6.75;4.90;;;;;;;9.09;100.00;98591.38;5077768;27;46166;-80
2021/05/19 07:04:48;;;;;;;7.18;4.85;;;;;;;9.15;100.00;98591.69;5074909;28;45468;-83
2021/05/19 07:07:13;;;;;;;7.38;4.75;;;;;;;9.48;100.00;98592.25;5067621;27;45529;-78
2021/05/19 07:09:39;;;;;;;7.50;4.70;;;;;;;9.60;100.00;98582.31;5073859;27;45650;-78
2021/05/19 07:12:05;;;;;;;7.78;4.70;;;;;;;9.73;100.00;98583.84;5076676;27;46228;-76
2021/05/19 07:14:32;;;;;;;8.25;4.72;;;;;;;9.86;100.00;98576.41;5075213;27;45370;-76
2021/05/19 07:16:57;;;;;;;6.78;4.35;;;;;;;9.96;100.00;98573.72;5077505;28;45553;-76
2021/05/19 07:19:24;;;;;;;6.93;3.92;;;;;;;10.40;100.00;98581.16;5076542;28;45543;-76
2021/05/19 07:21:51;;;;;;;6.05;3.80;;;;;;;10.55;100.00;98576.16;5076022;28;48139;-76
2021/05/19 07:24:17;;;;;;;7.22;4.43;;;;;;;10.97;100.00;98573.97;5075410;28;45472;-76
2021/05/19 07:26:44;;;;;;;5.70;3.28;;;;;;;12.01;93.11;98574.38;5075122;27;45474;-76
2021/05/19 07:29:11;;;;;;;8.00;3.95;;;;;;;12.49;90.28;98570.28;5075528;28;45748;-77
2021/05/19 07:31:37;;;;;;;4.13;2.92;;;;;;;15.29;75.80;98571.91;5076386;27;45910;-77
2021/05/19 07:34:04;;;;;;;6.78;2.80;;;;;;;17.27;66.17;98577.00;5074874;27;45404;-76
2021/05/19 07:36:29;;;;;;;5.22;2.20;;;;;;;20.41;52.03;98565.97;5075854;28;45399;-79
2021/05/19 07:38:55;;;;;;;3.85;2.10;;;;;;;22.61;43.30;98568.41;5076370;27;45525;-84
2021/05/19 07:41:26;;;;;;;3.00;1.40;;;;;;;22.71;42.00;98568.69;5074955;28;47753;-83
2021/05/19 07:43:51;;;;;;;5.07;1.45;;;;;;;22.71;42.90;98560.56;5075687;28;45410;-80
2021/05/19 07:46:17;;;;;;;4.13;1.80;;;;;;;24.43;41.12;98555.59;5076358;27;45667;-79
2021/05/19 07:48:43;;;;;;;1.65;1.00;;;;;;;18.67;53.20;98565.59;5076621;27;45628;-79
2021/05/19 07:51:08;;;;;;;2.90;1.10;;;;;;;21.22;46.08;98561.06;5076231;28;45606;-81
2021/05/19 07:53:34;;;;;;;2.45;0.93;;;;;;;21.45;44.35;98566.94;5076332;28;45689;-80
2021/05/19 07:56:13;;;;;;;3.28;1.00;;;;;;;23.20;40.33;98555.09;5076276;28;45409;-81
2021/05/19 07:58:48;;;;;;;1.95;0.70;;;;;;;23.41;37.12;98550.25;5073492;28;45432;-81
2021/05/19 08:04:17;;;;;;;4.18;1.13;;;;;;;23.29;37.66;98544.81;5034175;28;45610;-80
2021/05/19 08:06:42;;;;;;;3.92;0.90;;;;;;;25.19;34.34;98541.91;5034109;28;45409;-81
2021/05/19 08:09:08;;;;;;;3.30;0.90;;;;;;;25.27;35.46;98542.56;5049793;28;45527;-84
2021/05/19 08:11:34;;;;;;;2.40;0.90;;;;;;;26.33;31.75;98540.97;5072977;28;46231;-82
2021/05/19 08:14:00;;;;;;;2.60;0.93;;;;;;;25.58;31.55;98543.94;5075943;28;45283;-81
2021/05/19 08:16:26;;;;;;;2.55;1.02;;;;;;;26.07;32.45;98543.31;5075470;28;45294;-79
2021/05/19 08:18:51;;;;;;;1.55;0.70;;;;;;;25.59;32.36;98536.59;5075525;27;45609;-80
2021/05/19 08:21:17;;;;;;;2.35;0.95;;;;;;;25.57;33.72;98539.56;5076546;28;46470;-80
2021/05/19 08:23:42;;;;;;;1.75;0.80;;;;;;;25.29;32.81;98532.25;5075980;28;45400;-81
2021/05/19 08:26:08;;;;;;;6.47;0.95;;;;;;;24.09;34.33;98529.06;5076262;28;45507;-80
2021/05/19 08:28:35;;;;;;;2.55;1.00;;;;;;;24.93;32.82;98537.88;5067452;28;45553;-80
2021/05/19 08:31:01;;;;;;;2.72;0.90;;;;;;;26.00;31.69;98531.78;5075536;27;45522;-80
2021/05/19 08:33:27;;;;;;;4.53;0.90;;;;;;;26.08;33.92;98520.47;5073282;28;45295;-80
2021/05/19 08:35:52;;;;;;;1.83;0.60;;;;;;;25.87;31.42;98524.78;5075988;27;45403;-80
2021/05/19 08:38:18;;;;;;;1.70;0.60;;;;;;;24.40;32.36;98518.03;5076945;28;45429;-81
2021/05/19 08:40:43;;;;;;;3.35;0.77;;;;;;;25.83;32.19;98520.09;5072190;27;45534;-80
2021/05/19 08:43:12;;;;;;;2.53;0.60;;;;;;;24.41;32.77;98522.41;5075804;27;45424;-80
2021/05/19 08:45:38;;;;;;;3.15;0.70;;;;;;;25.82;30.76;98521.97;5073192;28;45522;-80
2021/05/19 08:48:05;;;;;;;2.90;0.70;;;;;;;20.68;39.62;98534.28;5075449;27;45547;-81
2021/05/19 08:50:33;;;;;;;2.25;0.63;;;;;;;17.96;44.21;98531.63;5075196;27;45491;-80
2021/05/19 08:52:59;;;;;;;4.55;0.98;;;;;;;22.18;38.61;98521.34;5073961;28;45586;-81
2021/05/19 08:55:26;;;;;;;2.25;0.80;;;;;;;23.16;37.18;98516.78;5076156;27;45394;-79
2021/05/19 08:57:52;;;;;;;1.83;0.80;;;;;;;21.54;39.78;98511.53;5075702;27;45409;-79
2021/05/19 09:00:18;;;;;;;2.05;0.70;;;;;;;18.51;43.50;98514.78;5068899;28;45478;-80
2021/05/19 09:03:08;;;;;;;3.47;0.73;;;;;;;21.33;38.72;98516.28;5063644;28;45373;-78
2021/05/19 09:05:36;;;;;;;1.27;0.70;;;;;;;20.74;40.07;98508.28;5061353;28;45549;-79
2021/05/19 09:08:16;;;;;;;2.60;0.90;;;;;;;18.86;47.29;98509.28;5069126;28;45237;-79
2021/05/19 09:10:43;;;;;;;2.60;0.83;;;;;;;16.90;51.06;98507.16;5066036;28;47079;-79
2021/05/19 09:13:41;;;;;;;1.77;0.70;;;;;;;16.05;50.67;98502.22;5074655;27;45426;-78
2021/05/19 09:16:08;;;;;;;1.52;0.65;;;;;;;15.81;52.95;98508.63;5073481;28;45531;-82
2021/05/19 09:18:53;;;;;;;1.10;0.55;;;;;;;15.24;56.88;98497.44;5075785;28;45503;-81
2021/05/19 09:21:36;;;;;;;1.60;0.60;;;;;;;14.98;56.47;98501.31;5075870;28;45338;-81
2021/05/19 09:24:05;;;;;;;2.63;0.57;;;;;;;15.00;55.86;98493.13;5068287;28;45811;-81
2021/05/19 09:26:30;;;;;;;2.25;0.60;;;;;;;15.39;57.36;98497.47;5073075;28;45688;-81
2021/05/19 09:29:23;;;;;;;3.05;0.70;;;;;;;18.68;47.01;98493.72;5071298;27;45595;-81
2021/05/19 09:44:38;;;;;;;1.48;0.73;;;;;;;15.70;54.07;98496.53;5106546;27;45526;-84
2021/05/19 09:47:03;;;;;;;2.75;0.77;;;;;;;15.13;54.60;98493.34;5110769;27;45521;-84
2021/05/19 09:49:29;;;;;;;3.70;1.05;;;;;;;14.93;57.71;98497.50;5110988;27;45484;-83
2021/05/19 09:51:59;;;;;;;2.67;0.88;;;;;;;14.48;55.10;98494.56;5110131;27;45456;-84
2021/05/19 09:54:32;;;;;;;3.70;0.75;;;;;;;14.40;56.19;98496.28;5111953;27;45344;-86
2021/05/19 09:57:01;;;;;;;3.22;0.70;;;;;;;14.20;57.06;98489.69;5111793;27;45470;-85
2021/05/19 09:59:27;;;;;;;3.25;0.80;;;;;;;14.18;56.30;98492.53;5114333;27;45327;-84
2021/05/19 10:01:54;;;;;;;3.83;1.17;;;;;;;14.49;56.61;98501.59;5112928;27;45596;-84
2021/05/19 10:04:23;;;;;;;2.63;0.98;;;;;;;15.16;55.97;98502.88;5114114;27;45956;-84
2021/05/19 10:06:49;;;;;;;1.58;0.75;;;;;;;15.08;55.52;98487.69;5108575;27;45436;-84
2021/05/19 10:09:16;;;;;;;1.67;0.95;;;;;;;15.57;53.05;98496.34;5110766;27;45791;-86
2021/05/19 10:11:43;;;;;;;1.98;0.80;;;;;;;16.05;51.05;98499.53;5103601;27;45566;-85
2021/05/19 10:14:11;;;;;;;3.03;0.60;;;;;;;17.27;51.96;98498.25;5106568;27;45486;-87
2021/05/19 10:16:40;;;;;;;1.63;0.60;;;;;;;19.25;45.24;98494.25;5107841;27;45222;-84
2021/05/19 10:19:06;;;;;;;3.78;0.98;;;;;;;20.24;48.57;98495.41;5098245;27;45353;-85
2021/05/19 10:21:34;;;;;;;1.95;0.80;;;;;;;20.75;46.93;98504.53;5105247;27;45623;-86
2021/05/19 10:24:10;;;;;;;1.27;0.52;;;;;;;20.71;44.46;98489.81;5092220;27;47575;-83
2021/05/19 10:27:00;;;;;;;2.97;0.90;;;;;;;20.92;44.83;98495.94;5094757;27;45499;-82
2021/05/19 10:29:47;;;;;;;2.53;0.68;;;;;;;21.48;40.63;98499.69;5103544;27;45352;-86
2021/05/19 10:32:22;;;;;;;1.30;0.55;;;;;;;20.78;40.94;98504.13;5112727;27;45588;-83
2021/05/19 10:34:53;;;;;;;3.10;0.85;;;;;;;20.05;46.03;98510.59;5104710;27;45500;-83
2021/05/19 10:37:27;;;;;;;2.30;0.70;;;;;;;19.32;44.04;98506.91;5092206;27;45439;-86
2021/05/19 10:40:15;;;;;;;3.00;0.70;;;;;;;19.86;43.54;98521.22;5094655;27;45318;-85
2021/05/19 10:42:43;;;;;;;1.98;0.88;;;;;;;20.35;42.61;98510.13;5100693;27;45536;-83
2021/05/19 10:45:14;;;;;;;2.88;0.63;;;;;;;19.97;43.28;98517.91;5088742;27;45305;-84
2021/05/19 10:47:40;;;;;;;2.13;0.70;;;;;;;20.40;40.48;98508.44;5089849;27;45506;-84
2021/05/19 10:58:31;;;;;;;2.38;0.60;;;;;;;21.33;39.35;98491.94;5099393;27;45499;-83
2021/05/19 11:00:57;;;;;;;1.10;0.50;;;;;;;20.75;38.93;98496.44;5088362;27;45404;-82
2021/05/19 11:03:23;;;;;;;2.95;0.80;;;;;;;19.63;41.11;98491.97;5084376;27;45478;-83
2021/05/19 11:05:55;;;;;;;0.70;0.43;;;;;;;19.64;40.87;98488.22;5093806;27;45411;-82
2021/05/19 11:08:21;;;;;;;1.98;0.60;;;;;;;18.84;39.41;98489.00;5087554;27;45616;-82
2021/05/19 11:11:01;;;;;;;2.55;0.80;;;;;;;18.92;43.06;98481.53;5087720;27;45418;-84
2021/05/19 11:13:27;;;;;;;2.55;0.60;;;;;;;18.66;44.24;98480.44;5091141;27;45658;-83
2021/05/19 11:16:10;;;;;;;2.60;0.70;;;;;;;18.66;42.09;98475.06;5086039;27;47434;-84
2021/05/19 11:21:16;;;;;;;;;;;;;;;18.69;41.02;98468.44;5090716;27;45521;-84
2021/05/19 11:23:57;;;;;;;2.75;0.70;;;;;;;19.47;41.88;98460.88;5086520;27;45551;-84
2021/05/19 11:26:23;;;;;;;2.65;0.80;;;;;;;19.20;43.02;98469.78;5093776;27;47380;-84
2021/05/19 11:28:56;;;;;;;3.72;0.80;;;;;;;18.52;47.16;98470.66;5095831;27;45517;-84
2021/05/19 11:31:23;;;;;;;2.42;0.50;;;;;;;18.56;48.78;98471.91;5094354;27;45472;-84
2021/05/19 11:34:01;;;;;;;2.17;0.55;;;;;;;18.11;50.24;98466.13;5086599;27;45542;-84
2021/05/19 11:36:29;;;;;;;2.42;0.60;;;;;;;17.73;53.41;98464.69;5098516;27;46155;-83
2021/05/19 11:38:55;;;;;;;3.05;0.73;;;;;;;17.72;51.07;98463.03;5093708;27;45498;-85
2021/05/19 11:41:22;;;;;;;1.05;0.63;;;;;;;17.50;52.16;98461.22;5084206;27;45433;-84
2021/05/19 11:43:47;;;;;;;1.40;0.70;;;;;;;17.53;53.19;98456.47;5097856;27;45413;-83
2021/05/19 11:46:13;;;;;;;2.60;0.60;;;;;;;16.89;56.81;98462.50;5098814;27;45281;-84
2021/05/19 11:48:39;;;;;;;3.60;0.90;;;;;;;16.86;58.59;98470.16;5096830;27;45417;-84
2021/05/19 11:51:22;;;;;;;2.55;0.80;;;;;;;17.04;55.69;98465.19;5084601;27;45427;-84
2021/05/19 11:54:02;;;;;;;2.25;0.98;;;;;;;16.94;63.51;98461.97;5094211;27;45325;-84
2021/05/19 11:56:42;;;;;;;4.70;1.10;;;;;;;16.56;59.91;98468.38;5090093;27;45345;-84
2021/05/19 11:59:20;;;;;;;3.42;1.15;;;;;;;16.17;58.12;98475.75;5085160;27;45558;-84
2021/05/19 12:02:18;;;;;;;4.03;0.90;;;;;;;15.30;57.54;98474.44;5095921;27;45366;-83
2021/05/19 12:04:44;;;;;;;1.15;0.50;;;;;;;15.61;58.78;98485.06;5083085;27;45636;-84
2021/05/19 12:07:09;;;;;;;4.35;0.98;;;;;;;15.57;61.90;98490.97;5091133;27;46171;-86
2021/05/19 12:09:40;;;;;;;1.67;0.85;;;;;;;15.27;64.26;98488.22;5095452;27;45447;-87
2021/05/19 12:12:16;;;;;;;1.40;0.68;;;;;;;14.93;65.21;98489.47;5091819;27;45408;-86
2021/05/19 12:14:54;;;;;;;2.83;0.85;;;;;;;14.12;74.27;98502.06;5079155;27;45583;-84
2021/05/19 12:17:27;;;;;;;3.70;1.10;;;;;;;13.22;73.52;98497.69;5084589;27;48127;-88
2021/05/19 12:19:52;;;;;;;1.65;0.80;;;;;;;14.03;86.04;98495.09;5091750;27;45287;-88
2021/05/19 12:22:22;;;;;;;5.18;1.20;;;;;;;14.35;89.78;98481.75;5091810;27;45354;-84
2021/05/19 12:24:49;;;;;;;2.78;1.08;;;;;;;14.30;88.78;98475.09;5080869;27;45575;-85
2021/05/19 12:27:22;;;;;;;1.92;0.98;;;;;;;14.10;89.61;98489.88;5087214;27;45510;-86
2021/05/19 12:29:58;;;;;;;2.95;0.80;;;;;;;14.11;88.49;98491.56;5094973;27;45282;-85